Time;durP1;ratioP1;P1;durP2;ratioP2;P2;SDS_P1;SDS_P2;PMS_P1;PMS_P2;Temp;Humidity;BMP_temperature;BMP_pressure;BME280_temperature;BME280_humidity;BME280_pressure;Samples;Min_cycle;Max_cycle;Signal;HPM_P1;HPM_P2
2022/11/04 00:01:47;;;;;;;8.45;4.43;;;11.30;99.90;;;;;;4984613;28;20035;-75
2022/11/04 00:04:15;;;;;;;11.63;4.70;;;11.30;99.90;;;;;;4985838;28;20033;-75
2022/11/04 00:06:41;;;;;;;8.32;4.65;;;11.30;99.90;;;;;;4983643;28;20602;-76
2022/11/04 00:09:09;;;;;;;9.65;3.75;;;11.40;99.90;;;;;;4985860;28;20034;-75
2022/11/04 00:14:19;;;;;;;9.68;4.60;;;11.40;99.90;;;;;;4986452;28;20581;-78
2022/11/04 00:28:41;;;;;;;12.77;4.30;;;11.40;99.90;;;;;;4985981;28;20093;-80
2022/11/04 00:30:27;;;;;;;7.57;3.92;;;11.40;99.90;;;;;;4985363;28;20062;-78
2022/11/04 00:35:37;;;;;;;8.52;3.90;;;11.40;99.90;;;;;;4985146;28;20038;-75
2022/11/04 00:38:03;;;;;;;9.43;4.55;;;11.40;99.90;;;;;;4984848;28;20026;-77
2022/11/04 00:40:28;;;;;;;8.88;4.40;;;11.40;99.90;;;;;;4967813;28;20054;-77
2022/11/04 00:42:54;;;;;;;8.20;4.38;;;11.30;99.90;;;;;;4985269;28;20395;-77
2022/11/04 00:45:19;;;;;;;10.98;4.82;;;11.30;99.90;;;;;;4968022;28;20031;-76
2022/11/04 00:47:45;;;;;;;11.18;5.15;;;11.30;99.90;;;;;;4984695;28;20100;-76
2022/11/04 00:50:11;;;;;;;11.32;5.20;;;11.30;99.90;;;;;;4983870;28;20015;-75
2022/11/04 00:52:36;;;;;;;9.13;5.07;;;11.30;99.90;;;;;;4984410;28;20212;-78
2022/11/04 00:55:03;;;;;;;9.95;5.20;;;11.30;99.90;;;;;;4985511;28;20033;-74
2022/11/04 00:57:28;;;;;;;12.93;5.78;;;11.30;99.90;;;;;;4966562;28;20043;-77
2022/11/04 00:59:54;;;;;;;13.70;5.50;;;11.40;99.90;;;;;;4967731;28;20059;-76
2022/11/04 01:02:19;;;;;;;11.13;5.68;;;11.40;99.90;;;;;;4984028;28;20031;-78
2022/11/04 01:04:46;;;;;;;8.93;5.30;;;11.40;99.90;;;;;;4984777;28;20086;-77
2022/11/04 01:07:11;;;;;;;9.63;5.47;;;11.30;99.90;;;;;;4967367;28;20159;-79
2022/11/04 01:09:37;;;;;;;13.70;5.70;;;11.40;99.90;;;;;;4985160;28;20542;-76
2022/11/04 01:12:03;;;;;;;13.75;5.90;;;11.30;99.90;;;;;;4985036;28;20031;-76
2022/11/04 01:14:29;;;;;;;11.70;6.20;;;11.30;99.90;;;;;;4984836;28;20031;-78
2022/11/04 01:16:54;;;;;;;10.15;5.70;;;11.30;99.90;;;;;;4984017;28;20073;-76
2022/11/04 01:19:20;;;;;;;23.25;6.10;;;11.30;99.90;;;;;;4983539;28;20031;-77
2022/11/04 01:21:50;;;;;;;14.27;6.05;;;11.30;99.90;;;;;;4985020;28;20094;-76
2022/11/04 01:24:15;;;;;;;17.65;5.85;;;11.30;99.90;;;;;;4984920;28;20034;-74
2022/11/04 01:26:41;;;;;;;15.00;5.63;;;11.30;99.90;;;;;;4967144;28;20031;-77
2022/11/04 01:29:06;;;;;;;16.02;6.95;;;11.30;99.90;;;;;;4985128;28;20082;-75
2022/11/04 01:31:32;;;;;;;12.77;4.97;;;11.40;99.90;;;;;;4984834;28;20027;-77
2022/11/04 01:33:58;;;;;;;11.52;5.70;;;11.40;99.90;;;;;;4984576;28;20027;-80
2022/11/04 01:36:24;;;;;;;13.38;6.68;;;11.40;99.90;;;;;;4984921;28;20039;-77
2022/11/04 01:38:50;;;;;;;17.50;7.15;;;11.40;99.90;;;;;;4984729;28;20045;-76
2022/11/04 01:41:26;;;;;;;11.18;6.20;;;11.40;99.90;;;;;;4984471;28;20427;-77
2022/11/04 01:43:53;;;;;;;13.93;6.65;;;11.40;99.90;;;;;;4967727;28;20034;-70
2022/11/04 01:46:37;;;;;;;15.18;6.60;;;11.40;99.90;;;;;;4984984;28;20495;-76
2022/11/04 01:49:26;;;;;;;16.38;6.28;;;11.40;99.90;;;;;;4967202;28;20034;-74
2022/11/04 01:51:59;;;;;;;13.55;6.35;;;11.40;99.90;;;;;;4984748;28;20050;-76
2022/11/04 01:54:26;;;;;;;10.27;6.05;;;11.40;99.90;;;;;;4984631;28;20058;-73
2022/11/04 01:56:53;;;;;;;15.98;7.35;;;11.30;99.90;;;;;;4967170;28;20043;-76
2022/11/04 01:59:27;;;;;;;15.00;6.70;;;11.30;99.90;;;;;;4986072;28;20086;-76
2022/11/04 02:01:53;;;;;;;15.57;7.30;;;11.40;99.90;;;;;;4988141;28;20027;-78
2022/11/04 02:04:26;;;;;;;11.95;6.28;;;11.40;99.90;;;;;;4987072;28;20478;-76
2022/11/04 02:06:57;;;;;;;14.73;6.85;;;11.30;99.90;;;;;;4970820;28;20057;-75
2022/11/04 02:09:25;;;;;;;10.43;5.95;;;11.40;99.90;;;;;;4988140;28;20027;-76
2022/11/04 02:14:35;;;;;;;12.43;6.75;;;11.40;99.90;;;;;;4987730;28;20046;-77
2022/11/04 02:17:21;;;;;;;12.60;6.75;;;11.40;99.90;;;;;;4987719;28;20041;-75
2022/11/04 02:19:50;;;;;;;13.77;7.50;;;11.40;99.90;;;;;;4987830;28;20026;-71
2022/11/04 02:22:36;;;;;;;13.88;7.13;;;11.40;99.90;;;;;;4987609;28;20023;-76
2022/11/04 02:25:05;;;;;;;16.80;7.95;;;11.40;99.90;;;;;;4987665;28;20037;-78
2022/11/04 02:27:48;;;;;;;13.43;6.88;;;11.40;99.90;;;;;;4987687;28;20061;-73
2022/11/04 02:30:16;;;;;;;12.80;7.50;;;11.40;99.90;;;;;;4987471;28;20494;-76
2022/11/04 02:32:53;;;;;;;13.25;7.10;;;11.40;99.90;;;;;;4986450;28;20205;-70
2022/11/04 02:35:36;;;;;;;15.23;7.72;;;11.50;99.90;;;;;;4987765;28;20030;-77
2022/11/04 02:38:19;;;;;;;13.38;7.45;;;11.50;99.90;;;;;;4987018;28;20043;-74
2022/11/04 02:41:09;;;;;;;14.05;7.78;;;11.50;99.90;;;;;;4987670;28;20030;-77
2022/11/04 02:43:52;;;;;;;13.13;7.70;;;11.50;99.90;;;;;;4987528;28;20074;-77
2022/11/04 02:46:36;;;;;;;14.98;7.30;;;11.50;99.90;;;;;;4987609;28;20035;-78
2022/11/04 02:49:15;;;;;;;12.85;7.53;;;11.50;99.90;;;;;;4969630;28;20046;-73
2022/11/04 02:51:49;;;;;;;13.15;7.68;;;11.50;99.90;;;;;;4968564;28;20038;-78
2022/11/04 02:54:39;;;;;;;13.30;7.40;;;11.50;99.90;;;;;;4987717;28;20074;-77
2022/11/04 02:57:09;;;;;;;15.20;7.03;;;11.50;99.90;;;;;;4987262;28;20042;-78
2022/11/04 02:59:43;;;;;;;17.83;7.80;;;11.50;99.90;;;;;;4969340;28;20030;-77
2022/11/04 03:02:11;;;;;;;;;;;11.50;99.90;;;;;;4987961;28;20019;-75
2022/11/04 03:04:41;;;;;;;11.23;4.78;;;11.40;99.90;;;;;;4987006;28;20273;-77
2022/11/04 03:07:11;;;;;;;7.90;3.78;;;11.50;99.90;;;;;;4968476;28;20081;-73
2022/11/04 03:09:41;;;;;;;6.85;3.70;;;11.50;99.90;;;;;;4986998;28;20030;-76
2022/11/04 03:12:13;;;;;;;5.13;2.80;;;11.50;99.90;;;;;;4985872;28;20037;-76
2022/11/04 03:14:44;;;;;;;6.95;2.80;;;11.50;99.90;;;;;;4987112;28;20023;-75
2022/11/04 03:17:35;;;;;;;6.60;2.47;;;11.50;99.90;;;;;;4985737;28;20035;-70
2022/11/04 03:20:06;;;;;;;2.85;1.70;;;11.50;99.90;;;;;;4968308;28;20116;-76
2022/11/04 03:22:36;;;;;;;4.30;2.50;;;11.50;99.90;;;;;;4969449;28;20105;-73
2022/11/04 03:25:04;;;;;;;3.67;1.85;;;11.50;99.90;;;;;;4986390;28;20034;-75
2022/11/04 03:27:50;;;;;;;3.97;1.90;;;11.50;99.90;;;;;;4985510;28;20027;-84
2022/11/04 03:30:18;;;;;;;3.00;1.73;;;11.50;99.90;;;;;;4969433;28;20111;-75
2022/11/04 03:33:00;;;;;;;3.53;1.90;;;11.50;99.90;;;;;;4986450;28;20027;-72
2022/11/04 03:35:28;;;;;;;2.53;1.40;;;11.40;99.90;;;;;;4986715;28;20468;-76
2022/11/04 03:37:54;;;;;;;3.38;2.05;;;11.40;99.90;;;;;;4969400;28;20042;-76
2022/11/04 03:40:20;;;;;;;4.50;2.03;;;11.40;99.90;;;;;;4969326;28;20047;-76
2022/11/04 03:43:01;;;;;;;5.05;2.10;;;11.30;99.90;;;;;;4969210;28;20058;-76
2022/11/04 03:45:27;;;;;;;2.85;1.75;;;11.30;99.90;;;;;;4984939;28;20027;-77
2022/11/04 03:47:54;;;;;;;2.95;1.75;;;11.30;99.90;;;;;;4969028;28;20034;-75
2022/11/04 03:50:29;;;;;;;3.75;1.80;;;11.30;99.90;;;;;;4968822;28;20031;-75
2022/11/04 03:52:56;;;;;;;3.40;1.60;;;11.20;99.90;;;;;;4968809;28;20034;-75
2022/11/04 03:55:42;;;;;;;7.35;2.35;;;11.20;99.90;;;;;;4986221;28;20034;-72
2022/11/04 03:58:34;;;;;;;5.05;2.15;;;11.20;99.90;;;;;;4986434;28;20034;-74
2022/11/04 04:01:16;;;;;;;4.10;1.88;;;11.10;99.90;;;;;;4949758;28;20031;-75
2022/11/04 04:03:50;;;;;;;5.85;2.33;;;11.10;99.90;;;;;;4984539;28;20032;-76
2022/11/04 04:06:23;;;;;;;6.47;2.50;;;11.00;99.90;;;;;;4985705;28;20062;-77
2022/11/04 04:08:57;;;;;;;3.20;2.20;;;11.10;99.90;;;;;;4968620;28;20035;-74
2022/11/04 04:11:35;;;;;;;5.32;2.78;;;11.00;99.90;;;;;;4986255;28;20042;-72
2022/11/04 04:14:10;;;;;;;7.40;2.65;;;11.00;99.90;;;;;;4968149;28;20053;-77
2022/11/04 04:16:43;;;;;;;8.55;3.03;;;11.00;99.90;;;;;;4968283;28;20086;-76
2022/11/04 04:19:15;;;;;;;3.78;2.40;;;11.00;99.90;;;;;;4985254;28;20034;-74
2022/11/04 04:21:48;;;;;;;4.43;3.03;;;11.00;99.90;;;;;;4985013;28;20053;-75
2022/11/04 04:29:47;;;;;;;5.13;3.20;;;11.00;99.90;;;;;;4985509;28;20053;-76
2022/11/04 04:32:14;;;;;;;4.93;3.63;;;10.90;99.90;;;;;;4985425;28;20038;-81
2022/11/04 04:34:40;;;;;;;6.50;3.72;;;10.90;99.90;;;;;;4968015;28;20029;-75
2022/11/04 04:37:13;;;;;;;8.52;4.50;;;10.90;99.90;;;;;;4984490;28;20035;-78
2022/11/04 04:45:30;;;;;;;7.68;3.85;;;10.90;99.90;;;;;;4986078;28;20077;-77
2022/11/04 04:47:56;;;;;;;8.65;4.97;;;10.90;99.90;;;;;;4968176;28;20026;-76
2022/11/04 04:50:27;;;;;;;8.82;5.13;;;10.90;99.90;;;;;;4985330;28;20088;-79
2022/11/04 04:52:55;;;;;;;8.60;4.47;;;10.90;99.90;;;;;;4985569;28;20033;-76
2022/11/04 04:55:21;;;;;;;13.07;4.82;;;10.80;99.90;;;;;;4985043;28;20026;-78
2022/11/04 04:57:47;;;;;;;8.63;5.28;;;10.80;99.90;;;;;;4985201;28;20067;-72
2022/11/04 05:00:16;;;;;;;10.98;5.60;;;10.90;99.90;;;;;;4985096;28;20426;-78
2022/11/04 05:02:42;;;;;;;10.98;6.13;;;10.80;99.90;;;;;;4985102;28;20069;-74
2022/11/04 05:05:08;;;;;;;10.73;6.10;;;10.90;99.90;;;;;;4985421;28;20030;-81
2022/11/04 05:07:34;;;;;;;13.32;5.63;;;10.90;99.90;;;;;;4983554;28;20053;-74
2022/11/04 05:10:00;;;;;;;14.48;7.03;;;10.80;99.90;;;;;;4984911;28;20090;-76
2022/11/04 05:13:24;;;;;;;7.90;5.07;;;10.90;99.90;;;;;;4983639;28;20065;-78
2022/11/04 05:15:11;;;;;;;10.48;5.70;;;10.90;99.90;;;;;;4984868;28;20026;-77
2022/11/04 05:17:36;;;;;;;13.02;7.28;;;10.90;99.90;;;;;;4983596;28;20049;-76
2022/11/04 05:20:02;;;;;;;14.70;7.10;;;10.90;99.90;;;;;;4982885;28;20030;-76
2022/11/04 05:22:28;;;;;;;11.98;6.75;;;10.90;99.90;;;;;;4985248;28;20038;-77
2022/11/04 05:24:54;;;;;;;11.48;6.13;;;11.00;99.90;;;;;;4967499;28;20026;-75
2022/11/04 05:27:19;;;;;;;11.30;5.88;;;10.90;99.90;;;;;;4985123;28;20059;-78
2022/11/04 05:29:45;;;;;;;9.60;6.07;;;11.00;99.90;;;;;;4984801;28;20475;-75
2022/11/04 05:32:10;;;;;;;10.55;6.32;;;11.00;99.90;;;;;;4983479;28;20023;-78
2022/11/04 05:34:36;;;;;;;12.73;6.38;;;11.00;99.90;;;;;;4968981;28;20054;-78
2022/11/04 05:37:02;;;;;;;13.63;7.07;;;11.00;99.90;;;;;;4988386;28;20045;-76
2022/11/04 05:39:27;;;;;;;10.63;6.80;;;11.00;99.90;;;;;;4988311;28;20042;-76
2022/11/04 05:41:53;;;;;;;15.13;6.80;;;11.00;99.90;;;;;;4989006;28;20054;-78
2022/11/04 05:44:18;;;;;;;10.68;6.22;;;11.00;99.90;;;;;;4988791;28;20375;-78
2022/11/04 05:46:44;;;;;;;11.82;5.95;;;11.00;99.90;;;;;;4988324;28;20039;-76
2022/11/04 05:49:10;;;;;;;13.80;6.93;;;11.00;99.90;;;;;;4971100;28;20030;-79
2022/11/04 05:51:35;;;;;;;12.90;6.78;;;11.00;99.90;;;;;;4988368;28;20026;-73
2022/11/04 05:54:01;;;;;;;11.30;6.57;;;11.00;99.90;;;;;;4986646;28;20027;-75
2022/11/04 05:56:27;;;;;;;15.40;6.82;;;11.00;99.90;;;;;;4987617;28;20046;-77
2022/11/04 05:58:53;;;;;;;10.63;5.97;;;11.00;99.90;;;;;;4987580;28;20038;-81
2022/11/04 06:01:38;;;;;;;14.73;5.82;;;11.00;99.90;;;;;;4960550;28;20531;-77
2022/11/04 06:04:04;;;;;;;9.40;5.45;;;11.00;99.90;;;;;;4981890;28;20042;-77
2022/11/04 06:06:35;;;;;;;11.77;6.00;;;11.00;99.90;;;;;;4970749;28;20057;-76
2022/11/04 06:09:01;;;;;;;7.97;4.60;;;11.00;99.90;;;;;;4970254;28;20026;-79
2022/11/04 06:11:28;;;;;;;9.85;5.40;;;11.00;99.90;;;;;;4970997;28;20063;-79
2022/11/04 06:13:56;;;;;;;6.78;4.28;;;11.10;99.90;;;;;;4986442;28;20027;-77
2022/11/04 06:16:21;;;;;;;7.43;4.35;;;11.10;99.90;;;;;;4987839;28;20043;-78
2022/11/04 06:18:47;;;;;;;8.45;4.57;;;11.10;99.90;;;;;;4978920;28;20030;-78
2022/11/04 06:21:13;;;;;;;8.10;4.72;;;11.00;99.90;;;;;;4968072;29;20034;-78
2022/11/04 06:23:39;;;;;;;7.57;4.78;;;11.10;99.90;;;;;;4966854;29;20031;-77
2022/11/04 06:26:05;;;;;;;11.45;5.47;;;11.10;99.90;;;;;;4968492;29;20028;-75
2022/11/04 06:28:31;;;;;;;10.27;4.68;;;11.10;99.90;;;;;;4968031;28;20089;-80
2022/11/04 06:30:58;;;;;;;6.28;3.35;;;11.10;99.90;;;;;;4967397;29;20042;-82
2022/11/04 06:33:24;;;;;;;6.45;4.13;;;11.10;99.90;;;;;;4979021;28;20041;-77
2022/11/04 06:35:49;;;;;;;4.95;2.95;;;11.10;99.90;;;;;;4987080;28;20026;-74
2022/11/04 06:38:15;;;;;;;4.82;2.25;;;11.00;99.90;;;;;;4970268;28;20034;-78
2022/11/04 06:40:40;;;;;;;5.95;2.92;;;11.00;99.90;;;;;;4987763;28;20031;-79
2022/11/04 06:43:06;;;;;;;3.42;2.13;;;11.00;99.90;;;;;;4987150;28;20035;-79
2022/11/04 06:45:32;;;;;;;10.70;2.60;;;11.00;99.90;;;;;;4967619;28;20041;-80
2022/11/04 06:47:57;;;;;;;5.00;2.67;;;11.00;99.90;;;;;;4967998;28;20058;-80
2022/11/04 06:50:23;;;;;;;5.75;2.97;;;11.00;99.90;;;;;;4983300;28;20066;-81
2022/11/04 06:52:49;;;;;;;3.47;2.42;;;11.00;99.90;;;;;;4985854;28;20110;-80
2022/11/04 06:55:15;;;;;;;4.80;3.10;;;10.90;99.90;;;;;;4969034;28;20069;-77
2022/11/04 06:57:41;;;;;;;8.50;3.00;;;10.90;99.90;;;;;;4987119;28;20109;-80
2022/11/04 07:00:07;;;;;;;6.50;3.72;;;10.90;99.90;;;;;;4985484;28;20058;-79
2022/11/04 07:02:32;;;;;;;10.70;3.65;;;10.90;99.90;;;;;;4966770;28;20047;-78
2022/11/04 07:04:58;;;;;;;6.00;3.67;;;10.90;99.90;;;;;;4969128;28;20027;-78
2022/11/04 07:07:24;;;;;;;7.47;4.28;;;10.90;99.90;;;;;;4985764;28;20047;-75
2022/11/04 07:09:49;;;;;;;6.78;4.30;;;10.90;99.90;;;;;;4984407;28;20030;-80
2022/11/04 07:12:15;;;;;;;7.47;3.78;;;10.90;99.90;;;;;;4968557;28;20124;-78
2022/11/04 07:14:41;;;;;;;6.82;3.72;;;10.90;99.90;;;;;;4985160;28;20034;-76
2022/11/04 07:17:06;;;;;;;4.47;2.90;;;10.90;99.90;;;;;;4973283;28;20050;-79
2022/11/04 07:19:32;;;;;;;3.92;2.45;;;10.90;99.90;;;;;;4985168;28;20023;-76
2022/11/04 07:21:58;;;;;;;7.80;3.85;;;10.90;99.90;;;;;;4985499;28;20055;-77
2022/11/04 07:24:23;;;;;;;5.20;3.00;;;10.90;99.90;;;;;;4986090;28;20487;-78
2022/11/04 07:26:49;;;;;;;4.70;2.50;;;10.90;99.90;;;;;;4969036;28;20049;-77
2022/11/04 07:29:15;;;;;;;4.55;2.53;;;10.90;99.90;;;;;;4968661;28;20034;-77
2022/11/04 07:31:42;;;;;;;2.63;1.70;;;11.00;99.90;;;;;;4985663;28;20035;-77
2022/11/04 07:34:07;;;;;;;3.55;1.70;;;10.90;99.90;;;;;;4984642;28;20527;-77
2022/11/04 07:36:33;;;;;;;3.53;2.03;;;10.80;99.90;;;;;;4981330;28;20034;-77
2022/11/04 07:38:59;;;;;;;3.45;1.90;;;10.80;99.90;;;;;;4961944;28;20935;-80
2022/11/04 07:41:25;;;;;;;2.42;1.60;;;10.80;99.90;;;;;;4961614;28;20031;-78
2022/11/04 07:43:53;;;;;;;5.00;1.92;;;10.80;99.90;;;;;;4985852;28;20642;-77
2022/11/04 07:46:20;;;;;;;2.63;1.42;;;10.90;99.90;;;;;;4986396;28;20638;-77
2022/11/04 07:48:45;;;;;;;2.92;1.63;;;10.80;99.90;;;;;;4968991;28;20034;-77
2022/11/04 07:51:15;;;;;;;2.25;1.42;;;10.80;99.90;;;;;;4968148;28;20023;-76
2022/11/04 07:53:41;;;;;;;3.53;1.60;;;10.80;99.90;;;;;;4968720;28;20023;-77
2022/11/04 07:56:10;;;;;;;2.45;1.38;;;10.80;99.90;;;;;;4985666;28;20061;-77
2022/11/04 07:58:36;;;;;;;3.63;1.33;;;10.80;99.90;;;;;;4984344;28;20035;-74
2022/11/04 08:01:08;;;;;;;2.25;1.27;;;10.90;99.90;;;;;;4964962;28;20039;-70
2022/11/04 08:03:35;;;;;;;5.55;1.38;;;11.00;99.90;;;;;;4964628;28;20037;-78
2022/11/04 08:06:03;;;;;;;2.67;1.35;;;10.90;99.90;;;;;;4982362;28;20034;-76
2022/11/04 08:08:29;;;;;;;2.08;1.25;;;11.10;99.90;;;;;;4985421;28;20051;-76
2022/11/04 08:10:57;;;;;;;4.03;1.30;;;11.30;99.90;;;;;;4986225;28;20069;-75
2022/11/04 08:13:27;;;;;;;4.30;1.40;;;11.50;99.90;;;;;;4968384;28;20161;-77
2022/11/04 08:15:53;;;;;;;4.68;1.40;;;11.50;99.90;;;;;;4985476;28;20034;-77
2022/11/04 08:18:19;;;;;;;1.88;1.00;;;11.40;99.90;;;;;;4984262;28;20090;-76
2022/11/04 08:20:49;;;;;;;2.95;1.23;;;11.30;99.90;;;;;;4968064;28;20061;-78
2022/11/04 08:23:16;;;;;;;4.60;1.20;;;11.30;99.90;;;;;;4953794;28;20098;-85
2022/11/04 08:25:42;;;;;;;1.83;1.20;;;11.40;99.90;;;;;;4965886;28;20110;-75
2022/11/04 08:28:11;;;;;;;1.40;1.17;;;11.50;99.90;;;;;;4981907;28;20061;-75
2022/11/04 08:30:37;;;;;;;1.60;0.90;;;11.70;99.90;;;;;;4985845;28;20498;-79
2022/11/04 08:33:04;;;;;;;2.55;1.00;;;11.90;99.90;;;;;;4966571;28;20031;-79
2022/11/04 08:35:30;;;;;;;2.70;0.95;;;12.00;99.90;;;;;;4966825;28;20081;-78
2022/11/04 08:37:55;;;;;;;2.58;0.85;;;12.10;99.90;;;;;;4983542;28;20042;-78
2022/11/04 08:40:21;;;;;;;2.05;0.95;;;12.00;99.90;;;;;;4965794;28;20122;-79
2022/11/04 08:42:47;;;;;;;1.85;0.85;;;11.90;99.90;;;;;;4967379;28;20031;-80
2022/11/04 08:45:12;;;;;;;1.38;0.65;;;11.80;99.90;;;;;;4981994;28;20030;-80
2022/11/04 08:47:38;;;;;;;2.10;0.90;;;11.70;99.90;;;;;;4979914;28;20027;-78
2022/11/04 08:50:04;;;;;;;1.50;0.60;;;11.60;99.90;;;;;;4979093;28;20031;-75
2022/11/04 08:52:29;;;;;;;2.15;0.70;;;11.50;99.90;;;;;;4979049;28;20451;-82
2022/11/04 08:54:55;;;;;;;1.58;0.63;;;11.50;99.90;;;;;;4959970;28;20031;-77
2022/11/04 08:57:21;;;;;;;1.70;0.80;;;11.50;99.90;;;;;;4958431;28;20771;-83
2022/11/04 08:59:47;;;;;;;3.08;1.15;;;11.50;99.90;;;;;;4984563;28;20058;-77
2022/11/04 09:02:16;;;;;;;3.33;0.60;;;11.60;99.90;;;;;;4967371;28;20054;-79
2022/11/04 09:04:41;;;;;;;1.30;0.70;;;11.60;99.90;;;;;;4985353;28;20587;-79
2022/11/04 09:07:07;;;;;;;2.15;0.70;;;11.60;99.90;;;;;;4984021;28;20046;-80
2022/11/04 09:09:32;;;;;;;1.30;0.68;;;11.60;99.90;;;;;;4981719;28;20152;-74
2022/11/04 09:11:58;;;;;;;1.23;0.50;;;11.60;99.90;;;;;;4984821;28;20035;-76
2022/11/04 09:14:25;;;;;;;2.78;0.95;;;11.60;99.90;;;;;;4985242;28;20038;-79
2022/11/04 09:16:52;;;;;;;1.42;0.70;;;11.70;99.90;;;;;;4983932;28;20042;-78
2022/11/04 09:19:18;;;;;;;3.92;0.77;;;11.80;99.90;;;;;;4967917;28;20176;-80
2022/11/04 09:21:44;;;;;;;1.27;0.70;;;11.80;99.90;;;;;;4983126;28;20480;-79
2022/11/04 09:24:10;;;;;;;4.03;0.90;;;11.80;99.90;;;;;;4984592;28;20092;-75
2022/11/04 09:26:36;;;;;;;3.53;0.70;;;11.90;99.90;;;;;;4984798;28;20483;-78
2022/11/04 09:29:02;;;;;;;2.03;0.77;;;12.00;99.90;;;;;;4982397;28;20066;-77
2022/11/04 09:31:29;;;;;;;3.83;0.80;;;12.10;99.90;;;;;;4984886;28;20027;-78
2022/11/04 09:33:56;;;;;;;3.53;0.80;;;12.40;99.90;;;;;;4965954;28;20123;-76
2022/11/04 09:36:22;;;;;;;3.35;0.60;;;12.50;99.90;;;;;;4982276;28;20141;-75
2022/11/04 09:38:48;;;;;;;3.63;0.90;;;12.60;99.90;;;;;;4953899;28;20027;-78
2022/11/04 09:41:34;;;;;;;2.42;0.75;;;12.50;99.90;;;;;;4953418;28;20038;-77
2022/11/04 09:44:18;;;;;;;1.30;0.70;;;12.50;99.90;;;;;;4975225;28;20031;-76
2022/11/04 09:46:48;;;;;;;1.40;0.70;;;12.50;99.90;;;;;;4967159;28;20031;-77
2022/11/04 09:49:15;;;;;;;1.33;0.50;;;12.50;99.90;;;;;;4983536;28;20054;-79
2022/11/04 09:51:44;;;;;;;5.70;0.80;;;12.50;99.90;;;;;;4966458;28;20039;-77
2022/11/04 09:54:41;;;;;;;2.58;0.70;;;12.50;99.90;;;;;;4962409;28;20440;-80
2022/11/04 09:57:20;;;;;;;2.22;0.88;;;12.60;99.90;;;;;;4981150;28;20039;-78
2022/11/04 09:59:46;;;;;;;1.83;0.85;;;12.70;99.90;;;;;;4976982;28;20449;-74
2022/11/04 10:02:30;;;;;;;4.32;0.82;;;12.70;99.90;;;;;;4962381;28;20038;-75
2022/11/04 10:05:14;;;;;;;1.75;0.80;;;12.70;99.90;;;;;;4978931;28;20062;-79
2022/11/04 10:08:05;;;;;;;4.78;0.98;;;12.70;99.90;;;;;;4962068;28;20054;-79
2022/11/04 10:10:51;;;;;;;3.70;0.98;;;12.60;99.90;;;;;;4955677;28;20039;-79
2022/11/04 10:13:41;;;;;;;3.65;1.10;;;12.60;99.90;;;;;;4977730;28;20031;-75
2022/11/04 10:16:30;;;;;;;3.65;1.08;;;12.60;99.90;;;;;;4975891;28;20078;-75
2022/11/04 10:19:06;;;;;;;3.72;1.25;;;12.60;99.90;;;;;;4962341;28;20030;-78
2022/11/04 10:21:40;;;;;;;2.35;1.02;;;12.70;99.90;;;;;;4966678;28;20041;-71
2022/11/04 10:24:19;;;;;;;6.07;1.15;;;12.80;99.90;;;;;;4979393;28;20023;-74
2022/11/04 10:26:55;;;;;;;2.28;1.25;;;13.00;99.90;;;;;;4982861;28;20491;-76
2022/11/04 10:29:42;;;;;;;3.03;1.10;;;13.20;99.90;;;;;;4969393;29;20019;-75
2022/11/04 10:32:21;;;;;;;4.65;1.50;;;13.40;99.90;;;;;;4985720;28;20043;-74
2022/11/04 10:35:29;;;;;;;6.88;1.17;;;13.40;99.90;;;;;;4981835;28;20117;-74
2022/11/04 10:38:18;;;;;;;3.20;1.23;;;13.50;99.90;;;;;;4977695;28;20147;-75
2022/11/04 10:40:52;;;;;;;5.55;1.27;;;13.40;99.90;;;;;;4975407;28;20364;-74
2022/11/04 10:43:32;;;;;;;2.55;1.35;;;13.30;99.90;;;;;;4969383;28;20098;-72
2022/11/04 10:46:19;;;;;;;3.83;1.45;;;13.40;99.90;;;;;;4959665;28;20046;-75
2022/11/04 10:49:02;;;;;;;4.20;1.63;;;13.40;99.90;;;;;;4966715;29;20035;-79
2022/11/04 10:51:27;;;;;;;2.08;1.10;;;13.50;99.90;;;;;;4980486;28;20027;-78
2022/11/04 10:53:56;;;;;;;2.20;1.13;;;13.70;99.90;;;;;;4986927;28;20034;-76
2022/11/04 10:56:31;;;;;;;4.13;1.20;;;13.80;99.90;;;;;;4985894;28;20049;-76
2022/11/04 10:59:06;;;;;;;3.17;1.17;;;14.00;99.90;;;;;;4986961;28;20033;-75
2022/11/04 11:01:33;;;;;;;2.85;1.05;;;14.10;99.90;;;;;;4984956;28;20582;-75
2022/11/04 11:04:00;;;;;;;6.13;1.30;;;14.20;99.90;;;;;;4985656;28;20050;-73
2022/11/04 11:06:35;;;;;;;3.92;1.30;;;14.20;99.90;;;;;;4980421;28;20388;-75
2022/11/04 11:09:12;;;;;;;5.60;1.48;;;14.30;99.90;;;;;;4986522;28;20034;-75
2022/11/04 11:11:40;;;;;;;3.15;1.10;;;14.40;99.90;;;;;;4986296;28;20050;-74
2022/11/04 11:14:28;;;;;;;7.93;1.27;;;14.40;99.90;;;;;;4984928;28;20026;-76
2022/11/04 11:16:55;;;;;;;4.03;1.13;;;14.50;99.90;;;;;;4986009;28;20038;-75
2022/11/04 11:19:24;;;;;;;6.80;1.25;;;14.50;99.90;;;;;;4986690;28;20023;-75
2022/11/04 11:21:56;;;;;;;3.65;1.10;;;14.40;99.90;;;;;;4968969;28;20509;-75
2022/11/04 11:24:26;;;;;;;4.05;1.15;;;14.50;99.90;;;;;;4968927;28;20057;-76
2022/11/04 11:27:01;;;;;;;3.28;1.38;;;14.90;99.90;;;;;;4986346;28;20042;-78
2022/11/04 11:29:38;;;;;;;;;;;15.40;99.90;;;;;;4985265;28;20522;-78
2022/11/04 11:32:14;;;;;;;6.45;1.52;;;15.50;99.90;;;;;;4985541;28;19913;-78
2022/11/04 11:34:44;;;;;;;7.18;1.70;;;15.20;99.90;;;;;;4968898;28;20027;-77
2022/11/04 11:37:21;;;;;;;5.07;1.23;;;14.90;99.90;;;;;;4984853;28;20043;-77
2022/11/04 11:39:46;;;;;;;4.40;1.63;;;14.90;99.90;;;;;;4985834;28;20042;-79
2022/11/04 11:42:19;;;;;;;5.32;1.63;;;15.10;99.90;;;;;;4985877;28;20034;-77
2022/11/04 11:44:50;;;;;;;2.78;1.42;;;15.30;99.90;;;;;;4985189;28;20105;-77
2022/11/04 11:47:20;;;;;;;5.43;1.60;;;15.40;99.90;;;;;;4966771;28;20027;-75
2022/11/04 11:50:06;;;;;;;4.22;1.60;;;15.20;99.90;;;;;;4985076;28;20031;-74
2022/11/04 11:52:34;;;;;;;4.30;1.80;;;14.90;99.90;;;;;;4985349;28;20038;-74
2022/11/04 11:55:33;;;;;;;3.33;1.42;;;14.80;99.90;;;;;;4985135;28;20031;-74
2022/11/04 11:58:21;;;;;;;4.03;1.60;;;15.20;99.90;;;;;;4985364;28;20039;-74
2022/11/04 12:01:02;;;;;;;5.50;1.98;;;15.30;99.90;;;;;;4967993;28;20031;-79
2022/11/04 12:03:36;;;;;;;7.53;1.80;;;15.30;99.90;;;;;;4983361;28;20035;-77
2022/11/04 12:06:22;;;;;;;3.83;2.00;;;15.20;99.90;;;;;;4967095;28;20042;-76
2022/11/04 12:08:51;;;;;;;5.20;1.70;;;15.00;99.90;;;;;;4968804;28;20051;-74
2022/11/04 12:11:32;;;;;;;7.47;1.95;;;14.90;99.90;;;;;;4958579;29;20055;-78
2022/11/04 12:14:09;;;;;;;5.97;2.40;;;15.00;99.90;;;;;;4954677;29;20042;-77
2022/11/04 12:16:59;;;;;;;6.50;2.00;;;15.20;99.90;;;;;;4939179;29;20091;-77
2022/11/04 12:19:29;;;;;;;5.07;1.92;;;15.30;99.90;;;;;;4958624;28;20031;-78
2022/11/04 12:22:13;;;;;;;4.70;2.08;;;15.40;99.90;;;;;;4958023;29;20051;-77
2022/11/04 12:24:55;;;;;;;4.88;1.63;;;15.40;99.90;;;;;;4938108;29;20472;-79
2022/11/04 12:27:42;;;;;;;5.50;1.40;;;15.50;99.90;;;;;;4951403;29;20043;-75
2022/11/04 12:30:16;;;;;;;3.25;1.55;;;15.50;99.90;;;;;;4947886;29;20036;-76
2022/11/04 12:33:04;;;;;;;3.67;1.73;;;15.50;99.90;;;;;;4963599;29;20880;-78
2022/11/04 12:35:46;;;;;;;4.07;2.00;;;15.60;99.90;;;;;;4964224;29;20400;-78
2022/11/04 12:38:35;;;;;;;6.95;2.33;;;15.60;99.90;;;;;;4948054;29;20071;-79
2022/11/04 12:41:07;;;;;;;7.30;2.00;;;15.40;99.90;;;;;;4947654;29;20121;-80
2022/11/04 12:43:37;;;;;;;8.70;2.42;;;15.20;99.90;;;;;;4964633;28;20119;-76
2022/11/04 12:46:24;;;;;;;4.25;1.85;;;15.10;99.90;;;;;;4963171;29;20027;-78
2022/11/04 12:49:29;;;;;;;6.07;2.08;;;15.20;99.90;;;;;;4947972;29;20555;-78
2022/11/04 12:52:10;;;;;;;7.03;1.80;;;15.30;99.90;;;;;;4947949;29;20035;-77
2022/11/04 12:54:44;;;;;;;9.75;2.00;;;15.60;99.90;;;;;;4947685;29;20117;-77
2022/11/04 12:57:30;;;;;;;6.35;1.63;;;15.80;99.90;;;;;;4950346;29;20039;-75
2022/11/04 13:00:10;;;;;;;6.35;1.60;;;16.20;99.90;;;;;;4947164;29;20031;-81
2022/11/04 13:02:59;;;;;;;4.18;2.00;;;16.50;99.90;;;;;;4963398;29;20090;-75
2022/11/04 13:05:49;;;;;;;5.07;2.17;;;16.90;99.90;;;;;;4967878;28;20082;-78
2022/11/04 13:08:21;;;;;;;4.82;1.95;;;17.30;99.90;;;;;;4980475;28;20057;-78
2022/11/04 13:10:52;;;;;;;5.25;1.73;;;17.70;99.90;;;;;;4967015;28;20391;-76
2022/11/04 13:13:26;;;;;;;4.07;1.58;;;17.80;99.90;;;;;;4985316;28;20030;-80
2022/11/04 13:15:57;;;;;;;4.87;1.83;;;17.90;99.90;;;;;;4985146;28;20469;-82
2022/11/04 13:18:27;;;;;;;4.75;1.70;;;17.80;99.90;;;;;;4985356;28;20358;-78
2022/11/04 13:20:57;;;;;;;6.05;1.90;;;17.60;99.90;;;;;;4985269;28;20037;-78
2022/11/04 13:23:54;;;;;;;6.50;2.30;;;17.40;99.90;;;;;;4966659;28;20027;-78
2022/11/04 13:26:19;;;;;;;5.63;1.65;;;17.40;99.90;;;;;;4984405;28;20049;-76
2022/11/04 13:28:58;;;;;;;5.72;1.70;;;17.60;99.90;;;;;;4967355;28;20129;-76
2022/11/04 13:31:38;;;;;;;3.45;1.77;;;17.80;99.90;;;;;;4967046;28;20505;-75
2022/11/04 13:34:40;;;;;;;5.15;1.85;;;18.00;99.90;;;;;;4985017;28;20059;-77
2022/11/04 13:37:17;;;;;;;5.80;1.90;;;18.10;99.90;;;;;;4984288;28;20047;-78
2022/11/04 13:39:51;;;;;;;7.00;2.30;;;17.80;99.90;;;;;;4967361;28;20526;-78